sensor_id;sensor_type;location;lat;lon;timestamp;temperature;humidity
42227;DHT22;27892;52.378;13.122;2023-08-20T00:00:53;27.40;74.50
42227;DHT22;27892;52.378;13.122;2023-08-20T00:03:19;27.40;74.50
42227;DHT22;27892;52.378;13.122;2023-08-20T00:05:44;27.40;74.20
42227;DHT22;27892;52.378;13.122;2023-08-20T00:08:10;27.30;74.20
42227;DHT22;27892;52.378;13.122;2023-08-20T00:10:36;27.30;74.30
42227;DHT22;27892;52.378;13.122;2023-08-20T00:13:02;27.20;74.30
42227;DHT22;27892;52.378;13.122;2023-08-20T00:15:29;27.20;75.00
42227;DHT22;27892;52.378;13.122;2023-08-20T00:17:55;27.10;74.50
42227;DHT22;27892;52.378;13.122;2023-08-20T00:20:22;27.10;74.60
42227;DHT22;27892;52.378;13.122;2023-08-20T00:22:48;27.10;75.10
42227;DHT22;27892;52.378;13.122;2023-08-20T00:25:14;27.00;75.10
42227;DHT22;27892;52.378;13.122;2023-08-20T00:27:41;27.10;75.10
42227;DHT22;27892;52.378;13.122;2023-08-20T00:30:07;27.10;75.00
42227;DHT22;27892;52.378;13.122;2023-08-20T00:32:34;27.00;75.00
42227;DHT22;27892;52.378;13.122;2023-08-20T00:35:00;27.00;75.10
42227;DHT22;27892;52.378;13.122;2023-08-20T00:37:27;27.00;75.40
42227;DHT22;27892;52.378;13.122;2023-08-20T00:39:53;27.00;75.50
42227;DHT22;27892;52.378;13.122;2023-08-20T00:42:18;27.00;75.80
42227;DHT22;27892;52.378;13.122;2023-08-20T00:44:44;27.00;76.10
42227;DHT22;27892;52.378;13.122;2023-08-20T00:47:10;27.00;76.50
42227;DHT22;27892;52.378;13.122;2023-08-20T00:49:37;27.00;76.60
42227;DHT22;27892;52.378;13.122;2023-08-20T00:52:04;27.10;76.60
42227;DHT22;27892;52.378;13.122;2023-08-20T00:54:31;27.10;76.50
42227;DHT22;27892;52.378;13.122;2023-08-20T00:56:59;27.10;76.80
42227;DHT22;27892;52.378;13.122;2023-08-20T00:59:25;27.10;77.00
42227;DHT22;27892;52.378;13.122;2023-08-20T01:01:51;27.10;76.90
42227;DHT22;27892;52.378;13.122;2023-08-20T01:04:17;27.10;76.80
42227;DHT22;27892;52.378;13.122;2023-08-20T01:09:50;27.00;77.70
42227;DHT22;27892;52.378;13.122;2023-08-20T01:12:22;27.00;77.00
42227;DHT22;27892;52.378;13.122;2023-08-20T01:14:49;27.00;77.10
42227;DHT22;27892;52.378;13.122;2023-08-20T01:17:15;26.90;77.20
42227;DHT22;27892;52.378;13.122;2023-08-20T01:19:42;26.90;77.00
42227;DHT22;27892;52.378;13.122;2023-08-20T01:30:15;26.90;77.20
42227;DHT22;27892;52.378;13.122;2023-08-20T01:32:42;26.90;77.60
42227;DHT22;27892;52.378;13.122;2023-08-20T01:35:15;26.80;77.70
42227;DHT22;27892;52.378;13.122;2023-08-20T01:37:41;26.80;77.90
42227;DHT22;27892;52.378;13.122;2023-08-20T01:40:07;26.80;77.80
42227;DHT22;27892;52.378;13.122;2023-08-20T01:42:39;26.90;77.70
42227;DHT22;27892;52.378;13.122;2023-08-20T01:45:06;26.90;77.60
42227;DHT22;27892;52.378;13.122;2023-08-20T01:47:32;26.90;77.30
42227;DHT22;27892;52.378;13.122;2023-08-20T01:49:58;26.90;77.20
42227;DHT22;27892;52.378;13.122;2023-08-20T01:52:25;26.90;77.20
42227;DHT22;27892;52.378;13.122;2023-08-20T01:54:51;26.90;76.80
42227;DHT22;27892;52.378;13.122;2023-08-20T01:57:16;27.00;76.60
42227;DHT22;27892;52.378;13.122;2023-08-20T01:59:42;27.00;76.50
42227;DHT22;27892;52.378;13.122;2023-08-20T02:02:08;27.00;76.10
42227;DHT22;27892;52.378;13.122;2023-08-20T02:04:34;27.00;76.00
42227;DHT22;27892;52.378;13.122;2023-08-20T02:07:00;27.00;76.00
42227;DHT22;27892;52.378;13.122;2023-08-20T02:09:25;27.00;76.10
42227;DHT22;27892;52.378;13.122;2023-08-20T02:11:51;27.00;76.90
42227;DHT22;27892;52.378;13.122;2023-08-20T02:14:17;26.90;76.30
42227;DHT22;27892;52.378;13.122;2023-08-20T02:16:43;26.90;76.30
42227;DHT22;27892;52.378;13.122;2023-08-20T02:19:09;26.90;76.30
42227;DHT22;27892;52.378;13.122;2023-08-20T02:21:35;26.90;76.40
42227;DHT22;27892;52.378;13.122;2023-08-20T02:24:01;26.90;76.50
42227;DHT22;27892;52.378;13.122;2023-08-20T02:26:27;26.90;76.40
42227;DHT22;27892;52.378;13.122;2023-08-20T02:28:53;26.90;76.40
42227;DHT22;27892;52.378;13.122;2023-08-20T02:31:18;26.90;76.50
42227;DHT22;27892;52.378;13.122;2023-08-20T02:33:47;26.80;76.40
42227;DHT22;27892;52.378;13.122;2023-08-20T02:36:13;26.90;76.40
42227;DHT22;27892;52.378;13.122;2023-08-20T02:38:39;26.90;76.50
42227;DHT22;27892;52.378;13.122;2023-08-20T02:41:05;26.80;76.60
42227;DHT22;27892;52.378;13.122;2023-08-20T02:43:30;26.80;76.60
42227;DHT22;27892;52.378;13.122;2023-08-20T02:45:56;26.80;76.80
42227;DHT22;27892;52.378;13.122;2023-08-20T02:48:22;26.80;76.70
42227;DHT22;27892;52.378;13.122;2023-08-20T02:50:53;26.80;77.00
42227;DHT22;27892;52.378;13.122;2023-08-20T02:53:22;26.80;77.20
42227;DHT22;27892;52.378;13.122;2023-08-20T02:55:48;26.70;77.20
42227;DHT22;27892;52.378;13.122;2023-08-20T02:58:14;26.70;77.50
42227;DHT22;27892;52.378;13.122;2023-08-20T03:00:41;26.70;77.60
42227;DHT22;27892;52.378;13.122;2023-08-20T03:03:23;26.70;77.90
42227;DHT22;27892;52.378;13.122;2023-08-20T03:05:52;26.60;77.90
42227;DHT22;27892;52.378;13.122;2023-08-20T03:08:18;26.60;78.10
42227;DHT22;27892;52.378;13.122;2023-08-20T03:10:43;26.60;78.30
42227;DHT22;27892;52.378;13.122;2023-08-20T03:13:09;26.50;78.20
42227;DHT22;27892;52.378;13.122;2023-08-20T03:15:35;26.50;78.40
42227;DHT22;27892;52.378;13.122;2023-08-20T03:18:00;26.50;78.60
42227;DHT22;27892;52.378;13.122;2023-08-20T03:20:26;26.50;78.60
42227;DHT22;27892;52.378;13.122;2023-08-20T03:22:54;26.50;78.80
42227;DHT22;27892;52.378;13.122;2023-08-20T03:25:19;26.40;78.80
42227;DHT22;27892;52.378;13.122;2023-08-20T03:27:45;26.40;79.00
42227;DHT22;27892;52.378;13.122;2023-08-20T03:30:11;26.40;79.10
42227;DHT22;27892;52.378;13.122;2023-08-20T03:32:37;26.40;79.40
42227;DHT22;27892;52.378;13.122;2023-08-20T03:35:04;26.40;79.50
42227;DHT22;27892;52.378;13.122;2023-08-20T03:37:29;26.40;79.50
42227;DHT22;27892;52.378;13.122;2023-08-20T03:39:55;26.40;79.40
42227;DHT22;27892;52.378;13.122;2023-08-20T03:42:21;26.40;79.20
42227;DHT22;27892;52.378;13.122;2023-08-20T03:44:47;26.40;79.20
42227;DHT22;27892;52.378;13.122;2023-08-20T03:47:12;26.40;79.30
42227;DHT22;27892;52.378;13.122;2023-08-20T03:49:38;26.40;79.50
42227;DHT22;27892;52.378;13.122;2023-08-20T03:52:04;26.30;79.60
42227;DHT22;27892;52.378;13.122;2023-08-20T03:54:33;26.30;79.40
42227;DHT22;27892;52.378;13.122;2023-08-20T03:56:59;26.30;79.70
42227;DHT22;27892;52.378;13.122;2023-08-20T03:59:24;26.30;79.90
42227;DHT22;27892;52.378;13.122;2023-08-20T04:01:50;26.30;80.00
42227;DHT22;27892;52.378;13.122;2023-08-20T04:04:16;26.30;80.10
42227;DHT22;27892;52.378;13.122;2023-08-20T04:06:41;26.20;80.00
42227;DHT22;27892;52.378;13.122;2023-08-20T04:09:10;26.20;80.30
42227;DHT22;27892;52.378;13.122;2023-08-20T04:11:36;26.20;80.50
42227;DHT22;27892;52.378;13.122;2023-08-20T04:14:02;26.10;80.60
42227;DHT22;27892;52.378;13.122;2023-08-20T04:16:29;26.10;80.80
42227;DHT22;27892;52.378;13.122;2023-08-20T04:18:55;26.10;81.30
42227;DHT22;27892;52.378;13.122;2023-08-20T04:21:21;26.10;81.20
42227;DHT22;27892;52.378;13.122;2023-08-20T04:23:47;26.10;80.90
42227;DHT22;27892;52.378;13.122;2023-08-20T04:26:13;26.10;80.90
42227;DHT22;27892;52.378;13.122;2023-08-20T04:28:45;26.20;81.10
42227;DHT22;27892;52.378;13.122;2023-08-20T04:31:16;26.10;81.30
42227;DHT22;27892;52.378;13.122;2023-08-20T04:33:48;26.10;81.30
42227;DHT22;27892;52.378;13.122;2023-08-20T04:36:13;26.10;81.50
42227;DHT22;27892;52.378;13.122;2023-08-20T04:38:39;26.10;81.50
42227;DHT22;27892;52.378;13.122;2023-08-20T04:41:05;26.20;81.40
42227;DHT22;27892;52.378;13.122;2023-08-20T04:43:31;26.20;81.50
42227;DHT22;27892;52.378;13.122;2023-08-20T04:45:56;26.30;81.10
42227;DHT22;27892;52.378;13.122;2023-08-20T04:48:22;26.20;80.70
42227;DHT22;27892;52.378;13.122;2023-08-20T04:50:51;26.20;80.90
42227;DHT22;27892;52.378;13.122;2023-08-20T04:53:17;26.30;81.00
42227;DHT22;27892;52.378;13.122;2023-08-20T04:55:43;26.30;80.50
42227;DHT22;27892;52.378;13.122;2023-08-20T04:58:08;26.40;80.10
42227;DHT22;27892;52.378;13.122;2023-08-20T05:00:34;26.40;79.80
42227;DHT22;27892;52.378;13.122;2023-08-20T05:03:00;26.40;79.50
42227;DHT22;27892;52.378;13.122;2023-08-20T05:05:26;26.40;79.50
42227;DHT22;27892;52.378;13.122;2023-08-20T05:07:52;26.40;79.20
42227;DHT22;27892;52.378;13.122;2023-08-20T05:10:18;26.50;79.10
42227;DHT22;27892;52.378;13.122;2023-08-20T05:12:43;26.60;78.80
42227;DHT22;27892;52.378;13.122;2023-08-20T05:15:09;26.70;78.70
42227;DHT22;27892;52.378;13.122;2023-08-20T05:17:35;26.80;77.90
42227;DHT22;27892;52.378;13.122;2023-08-20T05:20:01;26.80;77.50
42227;DHT22;27892;52.378;13.122;2023-08-20T05:22:26;26.90;77.20
42227;DHT22;27892;52.378;13.122;2023-08-20T05:24:52;26.90;76.70
42227;DHT22;27892;52.378;13.122;2023-08-20T05:27:18;26.90;76.30
42227;DHT22;27892;52.378;13.122;2023-08-20T05:29:43;26.90;75.90
42227;DHT22;27892;52.378;13.122;2023-08-20T05:32:09;27.00;76.10
42227;DHT22;27892;52.378;13.122;2023-08-20T05:34:35;27.00;75.00
42227;DHT22;27892;52.378;13.122;2023-08-20T05:37:01;27.00;74.80
42227;DHT22;27892;52.378;13.122;2023-08-20T05:39:27;27.10;75.30
42227;DHT22;27892;52.378;13.122;2023-08-20T05:41:54;27.50;74.00
42227;DHT22;27892;52.378;13.122;2023-08-20T05:44:20;27.70;71.10
42227;DHT22;27892;52.378;13.122;2023-08-20T05:46:45;27.80;70.20
42227;DHT22;27892;52.378;13.122;2023-08-20T05:49:13;27.70;68.80
42227;DHT22;27892;52.378;13.122;2023-08-20T05:51:41;27.60;68.60
42227;DHT22;27892;52.378;13.122;2023-08-20T05:54:07;27.50;67.40
42227;DHT22;27892;52.378;13.122;2023-08-20T05:56:32;27.30;67.00
42227;DHT22;27892;52.378;13.122;2023-08-20T05:58:58;27.10;67.30
42227;DHT22;27892;52.378;13.122;2023-08-20T06:01:24;27.00;67.30
42227;DHT22;27892;52.378;13.122;2023-08-20T06:03:49;27.00;67.20
42227;DHT22;27892;52.378;13.122;2023-08-20T06:06:15;27.20;67.00
42227;DHT22;27892;52.378;13.122;2023-08-20T06:08:41;27.40;66.30
42227;DHT22;27892;52.378;13.122;2023-08-20T06:11:06;28.40;64.80
42227;DHT22;27892;52.378;13.122;2023-08-20T06:13:32;30.00;60.60
42227;DHT22;27892;52.378;13.122;2023-08-20T06:15:58;30.80;56.30
42227;DHT22;27892;52.378;13.122;2023-08-20T06:18:23;30.60;54.70
42227;DHT22;27892;52.378;13.122;2023-08-20T06:20:49;31.10;55.80
42227;DHT22;27892;52.378;13.122;2023-08-20T06:23:15;32.90;52.40
42227;DHT22;27892;52.378;13.122;2023-08-20T06:25:40;34.50;48.70
42227;DHT22;27892;52.378;13.122;2023-08-20T06:28:06;34.20;46.00
42227;DHT22;27892;52.378;13.122;2023-08-20T06:30:32;33.10;46.90
42227;DHT22;27892;52.378;13.122;2023-08-20T06:32:57;32.00;48.60
42227;DHT22;27892;52.378;13.122;2023-08-20T06:35:23;31.10;50.00
42227;DHT22;27892;52.378;13.122;2023-08-20T06:37:48;30.40;51.30
42227;DHT22;27892;52.378;13.122;2023-08-20T06:40:14;29.80;53.00
42227;DHT22;27892;52.378;13.122;2023-08-20T06:42:40;29.40;54.00
42227;DHT22;27892;52.378;13.122;2023-08-20T06:45:06;29.00;54.80
42227;DHT22;27892;52.378;13.122;2023-08-20T06:47:33;28.70;55.30
42227;DHT22;27892;52.378;13.122;2023-08-20T06:49:59;28.40;55.60
42227;DHT22;27892;52.378;13.122;2023-08-20T06:52:24;28.10;55.80
42227;DHT22;27892;52.378;13.122;2023-08-20T06:54:50;27.90;56.40
42227;DHT22;27892;52.378;13.122;2023-08-20T06:57:16;27.70;56.40
42227;DHT22;27892;52.378;13.122;2023-08-20T06:59:41;27.70;56.40
42227;DHT22;27892;52.378;13.122;2023-08-20T07:02:09;28.40;55.50
42227;DHT22;27892;52.378;13.122;2023-08-20T07:04:35;28.60;54.90
42227;DHT22;27892;52.378;13.122;2023-08-20T07:07:01;30.60;52.80
42227;DHT22;27892;52.378;13.122;2023-08-20T07:09:26;31.80;51.00
42227;DHT22;27892;52.378;13.122;2023-08-20T07:11:52;34.30;46.70
42227;DHT22;27892;52.378;13.122;2023-08-20T07:14:18;36.50;42.00
42227;DHT22;27892;52.378;13.122;2023-08-20T07:16:43;38.20;39.50
42227;DHT22;27892;52.378;13.122;2023-08-20T07:19:09;38.40;36.10
42227;DHT22;27892;52.378;13.122;2023-08-20T07:21:34;37.00;35.70
42227;DHT22;27892;52.378;13.122;2023-08-20T07:24:00;36.10;38.60
42227;DHT22;27892;52.378;13.122;2023-08-20T07:26:26;36.60;37.10
42227;DHT22;27892;52.378;13.122;2023-08-20T07:28:52;36.60;37.20
42227;DHT22;27892;52.378;13.122;2023-08-20T07:31:25;37.70;36.50
42227;DHT22;27892;52.378;13.122;2023-08-20T07:33:51;39.30;34.50
42227;DHT22;27892;52.378;13.122;2023-08-20T07:36:18;40.60;32.50
42227;DHT22;27892;52.378;13.122;2023-08-20T07:38:44;41.50;31.20
42227;DHT22;27892;52.378;13.122;2023-08-20T07:41:11;42.40;30.10
42227;DHT22;27892;52.378;13.122;2023-08-20T07:43:38;42.50;29.00
42227;DHT22;27892;52.378;13.122;2023-08-20T07:46:04;42.80;28.80
42227;DHT22;27892;52.378;13.122;2023-08-20T07:48:30;42.80;28.70
42227;DHT22;27892;52.378;13.122;2023-08-20T07:50:55;42.60;29.30
42227;DHT22;27892;52.378;13.122;2023-08-20T07:53:21;42.60;29.10
42227;DHT22;27892;52.378;13.122;2023-08-20T07:55:46;42.60;29.30
42227;DHT22;27892;52.378;13.122;2023-08-20T07:58:12;42.50;29.20
42227;DHT22;27892;52.378;13.122;2023-08-20T08:00:38;41.90;29.80
42227;DHT22;27892;52.378;13.122;2023-08-20T08:03:04;40.90;30.70
42227;DHT22;27892;52.378;13.122;2023-08-20T08:05:29;40.10;31.40
42227;DHT22;27892;52.378;13.122;2023-08-20T08:07:55;39.80;33.00
42227;DHT22;27892;52.378;13.122;2023-08-20T08:10:21;40.00;32.10
42227;DHT22;27892;52.378;13.122;2023-08-20T08:12:46;40.10;32.10
42227;DHT22;27892;52.378;13.122;2023-08-20T08:15:12;39.80;32.40
42227;DHT22;27892;52.378;13.122;2023-08-20T08:17:39;39.30;33.50
42227;DHT22;27892;52.378;13.122;2023-08-20T08:20:05;39.00;33.40
42227;DHT22;27892;52.378;13.122;2023-08-20T08:22:31;39.00;32.90
42227;DHT22;27892;52.378;13.122;2023-08-20T08:24:57;38.90;33.10
42227;DHT22;27892;52.378;13.122;2023-08-20T08:27:23;38.70;32.90
42227;DHT22;27892;52.378;13.122;2023-08-20T08:29:48;38.70;33.00
42227;DHT22;27892;52.378;13.122;2023-08-20T08:32:14;38.90;32.90
42227;DHT22;27892;52.378;13.122;2023-08-20T08:34:39;38.80;32.70
42227;DHT22;27892;52.378;13.122;2023-08-20T08:37:05;38.10;33.90
42227;DHT22;27892;52.378;13.122;2023-08-20T08:39:32;37.50;35.00
42227;DHT22;27892;52.378;13.122;2023-08-20T08:42:02;37.50;35.10
42227;DHT22;27892;52.378;13.122;2023-08-20T08:44:34;38.00;34.70
42227;DHT22;27892;52.378;13.122;2023-08-20T08:47:01;38.60;34.10
42227;DHT22;27892;52.378;13.122;2023-08-20T08:49:27;38.50;34.20
42227;DHT22;27892;52.378;13.122;2023-08-20T08:51:56;38.30;34.50
42227;DHT22;27892;52.378;13.122;2023-08-20T08:54:23;38.00;34.30
42227;DHT22;27892;52.378;13.122;2023-08-20T08:56:50;37.70;35.20
42227;DHT22;27892;52.378;13.122;2023-08-20T08:59:15;37.30;35.60
42227;DHT22;27892;52.378;13.122;2023-08-20T09:01:41;36.60;36.90
42227;DHT22;27892;52.378;13.122;2023-08-20T09:04:07;35.90;36.50
42227;DHT22;27892;52.378;13.122;2023-08-20T09:09:17;34.70;37.90
42227;DHT22;27892;52.378;13.122;2023-08-20T09:11:43;34.60;37.90
42227;DHT22;27892;52.378;13.122;2023-08-20T09:14:24;34.70;39.60
42227;DHT22;27892;52.378;13.122;2023-08-20T09:16:57;34.90;39.30
42227;DHT22;27892;52.378;13.122;2023-08-20T09:19:23;35.20;39.00
42227;DHT22;27892;52.378;13.122;2023-08-20T09:21:49;35.30;38.80
42227;DHT22;27892;52.378;13.122;2023-08-20T09:24:15;35.10;37.00
42227;DHT22;27892;52.378;13.122;2023-08-20T09:26:45;34.90;37.90
42227;DHT22;27892;52.378;13.122;2023-08-20T09:29:11;35.10;37.80
42227;DHT22;27892;52.378;13.122;2023-08-20T09:31:38;35.20;39.70
42227;DHT22;27892;52.378;13.122;2023-08-20T09:34:04;35.50;40.60
42227;DHT22;27892;52.378;13.122;2023-08-20T09:36:31;35.60;39.40
42227;DHT22;27892;52.378;13.122;2023-08-20T09:38:57;35.60;38.70
42227;DHT22;27892;52.378;13.122;2023-08-20T09:41:24;35.60;39.30
42227;DHT22;27892;52.378;13.122;2023-08-20T09:43:56;35.60;40.90
42227;DHT22;27892;52.378;13.122;2023-08-20T09:46:24;35.50;40.30
42227;DHT22;27892;52.378;13.122;2023-08-20T09:48:51;35.40;40.20
42227;DHT22;27892;52.378;13.122;2023-08-20T09:51:24;35.20;40.90
42227;DHT22;27892;52.378;13.122;2023-08-20T09:56:31;35.10;41.40
42227;DHT22;27892;52.378;13.122;2023-08-20T09:59:00;35.10;41.20
42227;DHT22;27892;52.378;13.122;2023-08-20T10:01:27;35.30;40.50
42227;DHT22;27892;52.378;13.122;2023-08-20T10:03:53;35.30;40.90
42227;DHT22;27892;52.378;13.122;2023-08-20T10:06:20;35.40;40.80
42227;DHT22;27892;52.378;13.122;2023-08-20T10:08:46;35.50;41.20
42227;DHT22;27892;52.378;13.122;2023-08-20T10:11:12;35.50;40.60
42227;DHT22;27892;52.378;13.122;2023-08-20T10:13:39;35.60;40.30
42227;DHT22;27892;52.378;13.122;2023-08-20T10:16:05;35.60;40.10
42227;DHT22;27892;52.378;13.122;2023-08-20T10:18:30;35.70;40.10
42227;DHT22;27892;52.378;13.122;2023-08-20T10:21:01;35.80;38.30
42227;DHT22;27892;52.378;13.122;2023-08-20T10:23:26;36.00;39.10
42227;DHT22;27892;52.378;13.122;2023-08-20T10:25:53;36.00;38.20
42227;DHT22;27892;52.378;13.122;2023-08-20T10:28:25;35.90;39.50
42227;DHT22;27892;52.378;13.122;2023-08-20T10:31:18;36.00;39.80
42227;DHT22;27892;52.378;13.122;2023-08-20T10:36:16;36.10;39.20
42227;DHT22;27892;52.378;13.122;2023-08-20T10:38:44;36.10;38.80
42227;DHT22;27892;52.378;13.122;2023-08-20T10:41:10;36.10;39.10
42227;DHT22;27892;52.378;13.122;2023-08-20T10:43:45;36.30;39.30
42227;DHT22;27892;52.378;13.122;2023-08-20T10:46:22;36.30;37.40
42227;DHT22;27892;52.378;13.122;2023-08-20T10:48:53;36.20;38.30
42227;DHT22;27892;52.378;13.122;2023-08-20T10:51:45;36.30;38.40
42227;DHT22;27892;52.378;13.122;2023-08-20T10:54:12;36.40;39.80
42227;DHT22;27892;52.378;13.122;2023-08-20T10:56:46;36.40;39.20
42227;DHT22;27892;52.378;13.122;2023-08-20T10:59:21;36.50;39.50
42227;DHT22;27892;52.378;13.122;2023-08-20T11:01:49;36.60;39.70
42227;DHT22;27892;52.378;13.122;2023-08-20T11:04:16;36.70;39.30
42227;DHT22;27892;52.378;13.122;2023-08-20T11:06:42;36.80;40.20
42227;DHT22;27892;52.378;13.122;2023-08-20T11:09:08;37.00;39.20
42227;DHT22;27892;52.378;13.122;2023-08-20T11:11:38;37.00;39.00
42227;DHT22;27892;52.378;13.122;2023-08-20T11:14:05;37.10;39.10
42227;DHT22;27892;52.378;13.122;2023-08-20T11:16:32;37.20;39.20
42227;DHT22;27892;52.378;13.122;2023-08-20T11:18:58;37.20;37.80
42227;DHT22;27892;52.378;13.122;2023-08-20T11:21:24;37.20;37.00
42227;DHT22;27892;52.378;13.122;2023-08-20T11:23:49;37.20;37.70
42227;DHT22;27892;52.378;13.122;2023-08-20T11:26:16;37.20;39.40
42227;DHT22;27892;52.378;13.122;2023-08-20T11:28:45;37.20;38.60
42227;DHT22;27892;52.378;13.122;2023-08-20T11:31:12;37.30;38.70
42227;DHT22;27892;52.378;13.122;2023-08-20T11:33:37;37.30;38.80
42227;DHT22;27892;52.378;13.122;2023-08-20T11:36:05;37.40;37.90
42227;DHT22;27892;52.378;13.122;2023-08-20T11:38:31;37.40;36.70
42227;DHT22;27892;52.378;13.122;2023-08-20T11:40:58;37.30;36.60
42227;DHT22;27892;52.378;13.122;2023-08-20T11:43:27;37.30;36.70
42227;DHT22;27892;52.378;13.122;2023-08-20T11:45:53;37.40;36.60
42227;DHT22;27892;52.378;13.122;2023-08-20T11:48:20;37.40;36.80
42227;DHT22;27892;52.378;13.122;2023-08-20T11:50:47;37.50;36.70
42227;DHT22;27892;52.378;13.122;2023-08-20T11:53:13;37.40;36.80
42227;DHT22;27892;52.378;13.122;2023-08-20T11:55:42;37.50;36.90
42227;DHT22;27892;52.378;13.122;2023-08-20T11:58:11;37.50;36.20
42227;DHT22;27892;52.378;13.122;2023-08-20T12:00:37;37.60;35.40
42227;DHT22;27892;52.378;13.122;2023-08-20T12:03:02;37.60;34.00
42227;DHT22;27892;52.378;13.122;2023-08-20T12:05:29;37.50;34.20
42227;DHT22;27892;52.378;13.122;2023-08-20T12:08:01;37.40;35.30
42227;DHT22;27892;52.378;13.122;2023-08-20T12:10:29;37.40;35.80
42227;DHT22;27892;52.378;13.122;2023-08-20T12:12:55;37.40;35.60
42227;DHT22;27892;52.378;13.122;2023-08-20T12:15:22;37.40;34.60
42227;DHT22;27892;52.378;13.122;2023-08-20T12:18:02;37.40;36.60
42227;DHT22;27892;52.378;13.122;2023-08-20T12:20:33;37.30;34.70
42227;DHT22;27892;52.378;13.122;2023-08-20T12:23:04;37.30;34.10
42227;DHT22;27892;52.378;13.122;2023-08-20T12:25:31;37.30;35.50
42227;DHT22;27892;52.378;13.122;2023-08-20T12:27:59;37.30;35.80
42227;DHT22;27892;52.378;13.122;2023-08-20T12:30:25;37.50;35.30
42227;DHT22;27892;52.378;13.122;2023-08-20T12:32:50;37.40;33.00
42227;DHT22;27892;52.378;13.122;2023-08-20T12:35:16;37.40;34.10
42227;DHT22;27892;52.378;13.122;2023-08-20T12:37:41;37.30;35.50
42227;DHT22;27892;52.378;13.122;2023-08-20T12:40:08;37.30;35.30
42227;DHT22;27892;52.378;13.122;2023-08-20T12:42:37;36.90;35.30
42227;DHT22;27892;52.378;13.122;2023-08-20T12:45:05;36.40;35.50
42227;DHT22;27892;52.378;13.122;2023-08-20T12:47:31;36.20;35.70
42227;DHT22;27892;52.378;13.122;2023-08-20T12:49:56;36.10;34.50
42227;DHT22;27892;52.378;13.122;2023-08-20T12:52:22;35.90;36.00
42227;DHT22;27892;52.378;13.122;2023-08-20T12:54:47;35.70;35.80
42227;DHT22;27892;52.378;13.122;2023-08-20T12:57:13;35.70;37.50
42227;DHT22;27892;52.378;13.122;2023-08-20T12:59:39;35.90;38.50
42227;DHT22;27892;52.378;13.122;2023-08-20T13:02:05;36.20;36.80
42227;DHT22;27892;52.378;13.122;2023-08-20T13:04:31;36.50;36.90
42227;DHT22;27892;52.378;13.122;2023-08-20T13:06:57;36.80;37.80
42227;DHT22;27892;52.378;13.122;2023-08-20T13:09:23;36.90;36.80
42227;DHT22;27892;52.378;13.122;2023-08-20T13:11:49;36.90;35.90
42227;DHT22;27892;52.378;13.122;2023-08-20T13:14:18;36.80;35.70
42227;DHT22;27892;52.378;13.122;2023-08-20T13:16:43;36.50;35.90
42227;DHT22;27892;52.378;13.122;2023-08-20T13:19:09;36.30;37.20
42227;DHT22;27892;52.378;13.122;2023-08-20T13:21:35;36.10;37.20
42227;DHT22;27892;52.378;13.122;2023-08-20T13:24:01;36.10;38.30
42227;DHT22;27892;52.378;13.122;2023-08-20T13:26:26;36.30;39.30
42227;DHT22;27892;52.378;13.122;2023-08-20T13:28:52;36.40;36.70
42227;DHT22;27892;52.378;13.122;2023-08-20T13:31:18;36.50;37.50
42227;DHT22;27892;52.378;13.122;2023-08-20T13:33:43;36.70;35.00
42227;DHT22;27892;52.378;13.122;2023-08-20T13:36:09;36.50;36.70
42227;DHT22;27892;52.378;13.122;2023-08-20T13:38:34;36.10;37.40
42227;DHT22;27892;52.378;13.122;2023-08-20T13:41:00;36.00;39.10
42227;DHT22;27892;52.378;13.122;2023-08-20T13:43:26;35.90;36.90
42227;DHT22;27892;52.378;13.122;2023-08-20T13:45:52;35.90;37.20
42227;DHT22;27892;52.378;13.122;2023-08-20T13:48:18;36.20;38.20
42227;DHT22;27892;52.378;13.122;2023-08-20T13:50:43;36.60;38.70
42227;DHT22;27892;52.378;13.122;2023-08-20T13:53:09;36.80;38.30
42227;DHT22;27892;52.378;13.122;2023-08-20T13:55:35;36.90;38.10
42227;DHT22;27892;52.378;13.122;2023-08-20T13:58:01;36.90;37.60
42227;DHT22;27892;52.378;13.122;2023-08-20T14:00:27;36.70;37.50
42227;DHT22;27892;52.378;13.122;2023-08-20T14:02:53;36.60;37.60
42227;DHT22;27892;52.378;13.122;2023-08-20T14:05:18;36.70;38.50
42227;DHT22;27892;52.378;13.122;2023-08-20T14:07:45;37.00;37.70
42227;DHT22;27892;52.378;13.122;2023-08-20T14:10:11;37.60;37.10
42227;DHT22;27892;52.378;13.122;2023-08-20T14:12:37;37.90;34.90
42227;DHT22;27892;52.378;13.122;2023-08-20T14:15:03;37.60;34.50
42227;DHT22;27892;52.378;13.122;2023-08-20T14:17:28;37.30;35.30
42227;DHT22;27892;52.378;13.122;2023-08-20T14:19:55;37.00;36.50
42227;DHT22;27892;52.378;13.122;2023-08-20T14:22:21;37.30;35.40
42227;DHT22;27892;52.378;13.122;2023-08-20T14:24:47;37.90;33.90
42227;DHT22;27892;52.378;13.122;2023-08-20T14:27:13;37.90;33.50
42227;DHT22;27892;52.378;13.122;2023-08-20T14:29:38;37.40;33.70
42227;DHT22;27892;52.378;13.122;2023-08-20T14:32:04;37.00;33.80
42227;DHT22;27892;52.378;13.122;2023-08-20T14:34:30;36.60;34.60
42227;DHT22;27892;52.378;13.122;2023-08-20T14:36:56;36.10;35.20
42227;DHT22;27892;52.378;13.122;2023-08-20T14:39:21;35.90;36.30
42227;DHT22;27892;52.378;13.122;2023-08-20T14:41:47;35.80;36.00
42227;DHT22;27892;52.378;13.122;2023-08-20T14:44:12;35.70;36.10
42227;DHT22;27892;52.378;13.122;2023-08-20T14:46:38;35.50;36.30
42227;DHT22;27892;52.378;13.122;2023-08-20T14:49:03;35.20;37.30
42227;DHT22;27892;52.378;13.122;2023-08-20T14:51:29;35.10;37.90
42227;DHT22;27892;52.378;13.122;2023-08-20T14:53:55;34.80;37.90
42227;DHT22;27892;52.378;13.122;2023-08-20T14:56:20;34.60;37.20
42227;DHT22;27892;52.378;13.122;2023-08-20T14:58:46;34.40;37.90
42227;DHT22;27892;52.378;13.122;2023-08-20T15:01:12;34.40;37.90
42227;DHT22;27892;52.378;13.122;2023-08-20T15:03:38;34.40;38.40
42227;DHT22;27892;52.378;13.122;2023-08-20T15:06:04;34.30;38.90
42227;DHT22;27892;52.378;13.122;2023-08-20T15:08:30;34.10;38.90
42227;DHT22;27892;52.378;13.122;2023-08-20T15:10:56;33.80;38.80
42227;DHT22;27892;52.378;13.122;2023-08-20T15:13:23;33.70;39.70
42227;DHT22;27892;52.378;13.122;2023-08-20T15:15:52;33.40;39.80
42227;DHT22;27892;52.378;13.122;2023-08-20T15:18:18;33.30;39.80
42227;DHT22;27892;52.378;13.122;2023-08-20T15:20:44;33.10;40.20
42227;DHT22;27892;52.378;13.122;2023-08-20T15:23:10;33.00;40.80
42227;DHT22;27892;52.378;13.122;2023-08-20T15:25:35;32.90;41.10
42227;DHT22;27892;52.378;13.122;2023-08-20T15:28:01;32.70;41.40
42227;DHT22;27892;52.378;13.122;2023-08-20T15:30:29;32.70;42.30